Time;durP1;ratioP1;P1;durP2;ratioP2;P2;SDS_P1;SDS_P2;PMS_P1;PMS_P2;Temp;Humidity;BMP_temperature;BMP_pressure;BME280_temperature;BME280_humidity;BME280_pressure;Samples;Min_cycle;Max_cycle;Signal;HPM_P1;HPM_P2
2021/01/12 00:01:20;;;;;;;35.63;15.70;;;;;;;;;;5056441;28;20016;-66
2021/01/12 00:03:48;;;;;;;29.77;14.53;;;;;;;;;;5053237;28;20020;-67
2021/01/12 00:06:14;;;;;;;27.17;13.35;;;;;;;;;;5050378;28;20268;-66
2021/01/12 00:08:39;;;;;;;40.78;19.15;;;;;;;;;;5051934;28;20056;-66
2021/01/12 00:11:04;;;;;;;33.20;14.67;;;;;;;;;;5055369;28;20671;-66
2021/01/12 00:13:30;;;;;;;17.10;7.03;;;;;;;;;;5057802;28;20275;-65
2021/01/12 00:15:55;;;;;;;29.67;12.32;;;;;;;;;;5051674;28;20287;-67
2021/01/12 00:18:20;;;;;;;33.05;17.40;;;;;;;;;;5067511;28;20025;-65
2021/01/12 00:20:45;;;;;;;32.90;14.50;;;;;;;;;;5052300;28;20068;-67
2021/01/12 00:23:10;;;;;;;28.25;13.43;;;;;;;;;;5052410;28;20510;-66
2021/01/12 00:25:35;;;;;;;36.03;13.85;;;;;;;;;;5052107;28;20024;-67
2021/01/12 00:28:01;;;;;;;22.77;11.40;;;;;;;;;;5055901;28;20764;-67
2021/01/12 00:30:26;;;;;;;31.02;12.05;;;;;;;;;;5056223;28;20267;-66
2021/01/12 00:32:51;;;;;;;31.95;14.25;;;;;;;;;;5062790;28;20027;-67
2021/01/12 00:35:17;;;;;;;33.17;17.10;;;;;;;;;;5052391;28;20040;-67
2021/01/12 00:37:42;;;;;;;27.67;10.23;;;;;;;;;;5058960;28;20017;-66
2021/01/12 00:40:08;;;;;;;21.17;8.47;;;;;;;;;;5060954;28;20552;-67
2021/01/12 00:42:33;;;;;;;18.88;7.80;;;;;;;;;;5052641;28;20276;-67
2021/01/12 00:44:58;;;;;;;29.40;11.10;;;;;;;;;;5052448;28;20397;-66
2021/01/12 00:47:25;;;;;;;13.85;4.90;;;;;;;;;;5061683;28;20025;-66
2021/01/12 00:49:50;;;;;;;17.50;7.53;;;;;;;;;;5050663;28;20029;-64
2021/01/12 00:52:15;;;;;;;21.08;7.85;;;;;;;;;;5055942;28;20016;-66
2021/01/12 00:54:40;;;;;;;24.48;11.60;;;;;;;;;;5064233;28;20279;-66
2021/01/12 00:57:06;;;;;;;14.65;7.45;;;;;;;;;;5052040;28;20024;-66
2021/01/12 00:59:31;;;;;;;10.60;6.30;;;;;;;;;;5050852;28;20016;-67
2021/01/12 01:02:00;;;;;;;13.45;7.10;;;;;;;;;;5051302;28;20095;-66
2021/01/12 01:04:26;;;;;;;16.88;8.73;;;;;;;;;;5049854;28;20036;-66
2021/01/12 01:06:51;;;;;;;17.67;7.57;;;;;;;;;;5050367;28;20021;-67
2021/01/12 01:09:16;;;;;;;12.03;6.13;;;;;;;;;;5050399;28;20505;-64
2021/01/12 01:11:45;;;;;;;11.60;6.13;;;;;;;;;;5051277;28;20267;-67
2021/01/12 01:14:10;;;;;;;9.85;5.05;;;;;;;;;;5049848;28;20100;-66
2021/01/12 01:16:37;;;;;;;16.15;9.02;;;;;;;;;;5050241;28;20108;-66
2021/01/12 01:19:03;;;;;;;10.20;4.65;;;;;;;;;;5051229;28;20017;-66
2021/01/12 01:21:28;;;;;;;18.25;10.27;;;;;;;;;;5050324;28;20017;-66
2021/01/12 01:23:53;;;;;;;16.52;8.23;;;;;;;;;;5050334;28;20095;-66
2021/01/12 01:26:19;;;;;;;10.75;6.10;;;;;;;;;;5050228;28;20037;-68
2021/01/12 01:28:44;;;;;;;14.80;5.28;;;;;;;;;;5052368;28;20082;-66
2021/01/12 01:31:09;;;;;;;13.40;6.05;;;;;;;;;;5050161;28;20451;-66
2021/01/12 01:33:35;;;;;;;11.25;6.57;;;;;;;;;;5051556;28;20056;-66
2021/01/12 01:36:00;;;;;;;13.50;7.50;;;;;;;;;;5049680;28;20563;-66
2021/01/12 01:38:25;;;;;;;16.85;7.88;;;;;;;;;;5049211;28;20427;-66
2021/01/12 01:40:50;;;;;;;5.15;3.28;;;;;;;;;;5049672;28;20032;-66
2021/01/12 01:43:21;;;;;;;13.38;5.68;;;;;;;;;;5049076;28;20032;-66
2021/01/12 01:45:46;;;;;;;13.90;5.80;;;;;;;;;;5050398;28;20104;-66
2021/01/12 01:48:12;;;;;;;14.35;6.68;;;;;;;;;;5051004;28;20158;-66
2021/01/12 01:50:37;;;;;;;11.95;7.18;;;;;;;;;;5049558;28;20048;-67
2021/01/12 01:53:02;;;;;;;13.35;6.03;;;;;;;;;;5053438;28;20021;-65
2021/01/12 01:55:27;;;;;;;9.27;4.72;;;;;;;;;;5048926;28;20112;-67
2021/01/12 01:57:53;;;;;;;12.18;7.38;;;;;;;;;;5052059;28;20054;-66
2021/01/12 02:00:19;;;;;;;8.23;4.57;;;;;;;;;;5050777;28;20032;-67
2021/01/12 02:02:57;;;;;;;10.80;4.65;;;;;;;;;;5047550;28;20279;-65
2021/01/12 02:05:26;;;;;;;8.45;4.53;;;;;;;;;;5051081;28;20017;-66
2021/01/12 02:07:52;;;;;;;10.15;5.82;;;;;;;;;;5049999;28;20021;-65
2021/01/12 02:10:19;;;;;;;6.07;3.60;;;;;;;;;;5049474;28;20021;-66
2021/01/12 02:12:53;;;;;;;10.25;4.55;;;;;;;;;;5049327;28;20017;-67
2021/01/12 02:15:19;;;;;;;11.18;4.82;;;;;;;;;;5052220;28;20079;-66
2021/01/12 02:17:45;;;;;;;7.80;4.30;;;;;;;;;;5053856;28;20528;-66
2021/01/12 02:20:11;;;;;;;6.88;3.45;;;;;;;;;;5051571;28;20021;-66
2021/01/12 02:22:37;;;;;;;5.90;3.70;;;;;;;;;;5057330;28;20385;-67
2021/01/12 02:25:03;;;;;;;10.45;6.40;;;;;;;;;;5052920;28;20020;-67
2021/01/12 02:27:28;;;;;;;2.67;1.60;;;;;;;;;;5052867;28;20033;-67
2021/01/12 02:29:53;;;;;;;7.68;3.90;;;;;;;;;;5055618;28;20024;-66
2021/01/12 02:32:19;;;;;;;4.63;2.87;;;;;;;;;;5053327;28;20037;-67
2021/01/12 02:34:45;;;;;;;5.28;2.92;;;;;;;;;;5055124;28;20322;-66
2021/01/12 02:37:11;;;;;;;4.38;2.28;;;;;;;;;;5053307;28;20041;-66
2021/01/12 02:39:36;;;;;;;3.50;2.40;;;;;;;;;;5052098;28;20021;-66
2021/01/12 02:42:12;;;;;;;2.88;1.90;;;;;;;;;;5052263;28;20036;-67
2021/01/12 02:44:37;;;;;;;2.53;1.88;;;;;;;;;;5052872;28;20025;-67
2021/01/12 02:47:02;;;;;;;4.95;2.10;;;;;;;;;;5052595;28;20024;-66
2021/01/12 02:49:27;;;;;;;3.47;2.35;;;;;;;;;;5052447;28;20517;-67
2021/01/12 02:51:53;;;;;;;6.32;2.33;;;;;;;;;;5051299;28;20032;-67
2021/01/12 02:54:18;;;;;;;4.88;2.47;;;;;;;;;;5051752;28;20036;-66
2021/01/12 02:56:43;;;;;;;5.72;3.03;;;;;;;;;;5052690;28;20009;-67
2021/01/12 02:59:08;;;;;;;2.43;1.47;;;;;;;;;;5052645;28;20264;-67
2021/01/12 03:01:33;;;;;;;3.67;1.77;;;;;;;;;;5052050;28;20597;-67
2021/01/12 03:03:58;;;;;;;3.45;2.33;;;;;;;;;;5051896;28;20291;-66
2021/01/12 03:06:24;;;;;;;2.45;1.60;;;;;;;;;;5052123;28;20108;-67
2021/01/12 03:08:49;;;;;;;4.18;2.65;;;;;;;;;;5052706;28;20385;-66
2021/01/12 03:11:14;;;;;;;3.88;1.90;;;;;;;;;;5050431;28;20474;-67
2021/01/12 03:13:39;;;;;;;3.40;2.00;;;;;;;;;;5052629;28;20021;-67
2021/01/12 03:16:04;;;;;;;3.07;1.70;;;;;;;;;;5052016;28;20362;-66
2021/01/12 03:18:30;;;;;;;2.83;1.48;;;;;;;;;;5051112;28;20275;-66
2021/01/12 03:20:55;;;;;;;3.80;2.20;;;;;;;;;;5051617;28;20404;-66
2021/01/12 03:23:20;;;;;;;2.53;1.45;;;;;;;;;;5051724;28;20025;-69
2021/01/12 03:25:46;;;;;;;4.07;2.30;;;;;;;;;;5051923;28;20017;-66
2021/01/12 03:28:11;;;;;;;1.85;1.27;;;;;;;;;;5050723;28;20182;-68
2021/01/12 03:30:36;;;;;;;2.40;1.53;;;;;;;;;;5052213;28;20501;-65
2021/01/12 03:33:01;;;;;;;4.83;1.40;;;;;;;;;;5051207;28;20263;-69
2021/01/12 03:35:26;;;;;;;3.13;1.73;;;;;;;;;;5051602;28;20287;-66
2021/01/12 03:37:51;;;;;;;3.63;1.20;;;;;;;;;;5051715;28;20059;-66
2021/01/12 03:40:17;;;;;;;2.37;1.47;;;;;;;;;;5051454;28;20063;-66
2021/01/12 03:42:42;;;;;;;3.60;1.60;;;;;;;;;;5050818;28;20259;-66
2021/01/12 03:45:07;;;;;;;1.63;0.97;;;;;;;;;;5051539;28;20302;-66
2021/01/12 03:47:32;;;;;;;2.95;1.30;;;;;;;;;;5051142;28;20271;-66
2021/01/12 03:49:58;;;;;;;2.47;0.95;;;;;;;;;;5050316;28;20155;-66
2021/01/12 03:52:23;;;;;;;2.75;2.00;;;;;;;;;;5050568;28;20093;-67
2021/01/12 03:54:48;;;;;;;1.65;1.13;;;;;;;;;;5051718;28;20025;-66
2021/01/12 03:57:13;;;;;;;1.55;1.02;;;;;;;;;;5051085;28;20025;-67
2021/01/12 03:59:38;;;;;;;3.20;1.00;;;;;;;;;;5051564;28;20025;-67
2021/01/12 04:02:04;;;;;;;3.25;1.27;;;;;;;;;;5050793;28;20295;-67
2021/01/12 04:04:29;;;;;;;1.90;1.13;;;;;;;;;;5051407;28;20377;-66
2021/01/12 04:06:54;;;;;;;2.15;1.45;;;;;;;;;;5051394;28;20040;-67
2021/01/12 04:09:19;;;;;;;1.77;1.23;;;;;;;;;;5050848;28;20043;-67
2021/01/12 04:11:45;;;;;;;1.75;0.70;;;;;;;;;;5050921;28;20287;-66
2021/01/12 04:14:11;;;;;;;2.53;1.75;;;;;;;;;;5050278;28;20016;-67
2021/01/12 04:16:36;;;;;;;3.78;1.98;;;;;;;;;;5050532;28;20036;-66
2021/01/12 04:19:01;;;;;;;1.75;1.08;;;;;;;;;;5051254;28;20052;-67
2021/01/12 04:21:26;;;;;;;10.15;1.75;;;;;;;;;;5050029;28;20035;-66
2021/01/12 04:23:52;;;;;;;1.80;0.98;;;;;;;;;;5051053;28;20139;-66
2021/01/12 04:26:17;;;;;;;1.65;1.35;;;;;;;;;;5050357;28;20031;-66
2021/01/12 04:28:42;;;;;;;2.95;1.45;;;;;;;;;;5050443;28;20075;-66
2021/01/12 04:31:07;;;;;;;1.83;1.17;;;;;;;;;;5049815;28;20052;-67
2021/01/12 04:33:32;;;;;;;2.38;1.35;;;;;;;;;;5048748;28;20059;-66
2021/01/12 04:35:58;;;;;;;3.87;1.60;;;;;;;;;;5048848;28;20033;-66
2021/01/12 04:38:23;;;;;;;2.83;1.27;;;;;;;;;;5050032;28;20268;-65
2021/01/12 04:40:48;;;;;;;1.10;0.55;;;;;;;;;;5049996;28;20268;-66
2021/01/12 04:43:13;;;;;;;1.73;1.03;;;;;;;;;;5049564;28;20025;-66
2021/01/12 04:45:39;;;;;;;1.70;1.13;;;;;;;;;;5049605;28;20605;-66
2021/01/12 04:48:04;;;;;;;4.03;1.42;;;;;;;;;;5049059;28;20025;-67
2021/01/12 04:50:29;;;;;;;4.05;1.88;;;;;;;;;;5049797;28;20017;-67
2021/01/12 04:52:54;;;;;;;2.58;1.30;;;;;;;;;;5048685;28;20028;-67
2021/01/12 04:55:20;;;;;;;1.67;1.20;;;;;;;;;;5049563;28;20071;-67
2021/01/12 04:57:46;;;;;;;2.45;1.50;;;;;;;;;;5049833;28;20305;-67
2021/01/12 05:00:17;;;;;;;1.90;1.10;;;;;;;;;;5049325;28;20021;-67
2021/01/12 05:02:54;;;;;;;4.65;1.30;;;;;;;;;;5050057;28;20025;-67
2021/01/12 05:05:20;;;;;;;4.60;1.35;;;;;;;;;;5049700;28;20041;-65
2021/01/12 05:07:45;;;;;;;0.70;0.60;;;;;;;;;;5049676;28;20036;-65
2021/01/12 05:10:11;;;;;;;2.33;1.07;;;;;;;;;;5049195;28;20058;-65
2021/01/12 05:12:39;;;;;;;2.53;0.70;;;;;;;;;;5049414;28;20716;-65
2021/01/12 05:15:05;;;;;;;1.33;0.70;;;;;;;;;;5048273;28;20389;-65
2021/01/12 05:17:33;;;;;;;2.90;0.93;;;;;;;;;;5048897;28;20616;-65
2021/01/12 05:20:00;;;;;;;1.27;0.73;;;;;;;;;;5048356;28;20159;-67
2021/01/12 05:22:26;;;;;;;2.08;0.82;;;;;;;;;;5048854;28;20021;-67
2021/01/12 05:25:18;;;;;;;2.10;1.02;;;;;;;;;;5049453;28;20063;-66
2021/01/12 05:27:37;;;;;;;1.73;1.02;;;;;;;;;;5046446;28;20033;-67
2021/01/12 05:30:02;;;;;;;1.58;0.93;;;;;;;;;;5048740;28;20155;-67
2021/01/12 05:32:27;;;;;;;2.03;0.98;;;;;;;;;;5048567;28;20094;-67
2021/01/12 05:34:53;;;;;;;2.53;0.68;;;;;;;;;;5049445;28;20121;-67
2021/01/12 05:37:20;;;;;;;1.17;0.60;;;;;;;;;;5049441;28;20282;-67
2021/01/12 05:39:45;;;;;;;2.80;1.23;;;;;;;;;;5049534;28;20020;-67
2021/01/12 05:42:11;;;;;;;3.42;0.80;;;;;;;;;;5049211;28;20024;-66
2021/01/12 05:44:37;;;;;;;1.17;0.77;;;;;;;;;;5049263;28;20075;-66
2021/01/12 05:47:02;;;;;;;1.63;0.55;;;;;;;;;;5048857;28;20040;-66
2021/01/12 05:49:28;;;;;;;1.40;0.75;;;;;;;;;;5048889;28;20111;-66
2021/01/12 05:51:53;;;;;;;3.58;1.05;;;;;;;;;;5047381;28;20021;-66
2021/01/12 05:54:31;;;;;;;2.40;0.75;;;;;;;;;;5049406;28;20033;-66
2021/01/12 05:56:57;;;;;;;2.53;0.80;;;;;;;;;;5048698;28;20017;-66
2021/01/12 05:59:24;;;;;;;1.85;1.00;;;;;;;;;;5049069;28;20017;-66
2021/01/12 06:01:56;;;;;;;1.65;1.00;;;;;;;;;;5048094;28;20059;-66
2021/01/12 06:04:21;;;;;;;0.40;0.30;;;;;;;;;;5048793;28;20520;-66
2021/01/12 06:06:48;;;;;;;2.80;1.20;;;;;;;;;;5048800;28;20025;-66
2021/01/12 06:09:14;;;;;;;4.35;1.00;;;;;;;;;;5049358;28;20032;-66
2021/01/12 06:11:40;;;;;;;1.27;0.80;;;;;;;;;;5048396;28;20036;-66
2021/01/12 06:14:09;;;;;;;2.67;0.90;;;;;;;;;;5049276;28;20021;-66
2021/01/12 06:16:35;;;;;;;1.67;0.98;;;;;;;;;;5051474;23;20029;-67
2021/01/12 06:19:03;;;;;;;1.98;0.93;;;;;;;;;;5029001;28;20032;-66
2021/01/12 06:21:29;;;;;;;5.63;0.70;;;;;;;;;;5028466;28;20496;-67
2021/01/12 06:23:56;;;;;;;1.95;0.77;;;;;;;;;;5028842;28;20029;-67
2021/01/12 06:26:21;;;;;;;5.22;1.05;;;;;;;;;;5028853;28;20098;-67
2021/01/12 06:28:46;;;;;;;8.18;1.40;;;;;;;;;;5028545;28;20484;-67
2021/01/12 06:31:12;;;;;;;2.38;0.60;;;;;;;;;;5027977;28;20021;-66
2021/01/12 06:33:37;;;;;;;1.70;0.90;;;;;;;;;;5028972;28;20143;-67
2021/01/12 06:36:05;;;;;;;1.13;0.70;;;;;;;;;;5028967;28;20074;-67
2021/01/12 06:38:34;;;;;;;1.48;0.88;;;;;;;;;;5028972;28;20131;-67
2021/01/12 06:41:01;;;;;;;0.90;0.68;;;;;;;;;;5028615;28;20022;-64
2021/01/12 06:43:28;;;;;;;2.08;0.82;;;;;;;;;;5027293;28;20025;-65
2021/01/12 06:45:54;;;;;;;5.80;1.10;;;;;;;;;;5027511;28;20044;-64
2021/01/12 06:48:20;;;;;;;1.42;0.73;;;;;;;;;;5026011;28;20088;-64
2021/01/12 06:50:45;;;;;;;1.77;1.10;;;;;;;;;;5027283;28;20434;-64
2021/01/12 06:53:12;;;;;;;2.00;0.40;;;;;;;;;;5024242;28;20080;-64
2021/01/12 06:55:37;;;;;;;5.55;0.80;;;;;;;;;;5024344;28;20055;-64
2021/01/12 06:58:07;;;;;;;3.10;1.58;;;;;;;;;;5026659;28;20049;-65
2021/01/12 07:00:34;;;;;;;2.47;1.48;;;;;;;;;;5022404;28;20060;-64
2021/01/12 07:03:01;;;;;;;4.00;0.90;;;;;;;;;;5026499;28;20060;-65
2021/01/12 07:05:35;;;;;;;2.90;1.00;;;;;;;;;;5024909;28;20033;-66
2021/01/12 07:08:05;;;;;;;1.45;1.00;;;;;;;;;;5025733;28;20037;-67
2021/01/12 07:10:30;;;;;;;3.00;1.13;;;;;;;;;;5030814;28;20032;-67
2021/01/12 07:12:55;;;;;;;4.83;0.80;;;;;;;;;;5030313;28;20025;-67
2021/01/12 07:15:22;;;;;;;1.23;0.77;;;;;;;;;;5029417;28;20788;-67
2021/01/12 07:17:48;;;;;;;5.30;1.02;;;;;;;;;;5032587;28;20298;-67
2021/01/12 07:20:15;;;;;;;3.42;1.42;;;;;;;;;;5031930;28;20633;-67
2021/01/12 07:22:42;;;;;;;1.30;0.90;;;;;;;;;;5031366;28;20381;-67
2021/01/12 07:25:08;;;;;;;1.33;0.80;;;;;;;;;;5032402;28;20071;-67
2021/01/12 07:27:34;;;;;;;4.03;1.38;;;;;;;;;;5032571;28;20033;-67
2021/01/12 07:30:01;;;;;;;2.45;1.13;;;;;;;;;;5031890;28;20027;-67
2021/01/12 07:32:27;;;;;;;6.95;1.27;;;;;;;;;;5031460;28;20029;-67
2021/01/12 07:34:57;;;;;;;1.90;1.10;;;;;;;;;;5029672;28;20029;-67
2021/01/12 07:37:30;;;;;;;1.73;0.87;;;;;;;;;;5031326;28;20025;-66
2021/01/12 07:39:56;;;;;;;0.90;0.60;;;;;;;;;;5031636;28;20496;-64
2021/01/12 07:42:21;;;;;;;3.38;1.10;;;;;;;;;;5030496;28;20132;-64
2021/01/12 07:44:46;;;;;;;1.95;1.20;;;;;;;;;;5029720;28;20370;-64
2021/01/12 07:47:12;;;;;;;5.90;1.23;;;;;;;;;;5032009;28;20025;-63
2021/01/12 07:49:37;;;;;;;5.30;1.52;;;;;;;;;;5031362;28;20304;-64
2021/01/12 07:52:03;;;;;;;5.07;0.90;;;;;;;;;;5031568;28;20060;-65
2021/01/12 07:54:28;;;;;;;2.17;1.10;;;;;;;;;;5030561;28;20030;-64
2021/01/12 07:56:54;;;;;;;4.93;0.82;;;;;;;;;;5031604;28;20564;-65
2021/01/12 07:59:19;;;;;;;8.27;1.35;;;;;;;;;;5030346;28;20029;-64
2021/01/12 08:01:45;;;;;;;4.13;2.00;;;;;;;;;;5030816;28;20363;-65
2021/01/12 08:04:12;;;;;;;4.93;2.53;;;;;;;;;;5030748;28;20029;-66
2021/01/12 08:06:41;;;;;;;1.27;0.60;;;;;;;;;;5030572;28;20022;-65
2021/01/12 08:09:06;;;;;;;2.80;0.60;;;;;;;;;;5030042;28;20028;-67
2021/01/12 08:11:32;;;;;;;4.30;1.70;;;;;;;;;;5025844;28;20029;-67
2021/01/12 08:14:07;;;;;;;3.53;1.65;;;;;;;;;;5029646;28;20017;-67
2021/01/12 08:16:32;;;;;;;3.20;1.42;;;;;;;;;;5028189;28;20381;-66
2021/01/12 08:18:57;;;;;;;1.27;1.00;;;;;;;;;;5029377;28;20026;-66
2021/01/12 08:21:23;;;;;;;2.72;1.20;;;;;;;;;;5031105;28;20410;-66
2021/01/12 08:23:48;;;;;;;1.45;1.05;;;;;;;;;;5031059;28;20159;-66
2021/01/12 08:26:13;;;;;;;7.38;1.50;;;;;;;;;;5031480;28;20465;-67
2021/01/12 08:28:38;;;;;;;4.70;1.25;;;;;;;;;;5030488;28;20017;-67
2021/01/12 08:31:03;;;;;;;3.88;1.80;;;;;;;;;;5025416;28;20737;-67
2021/01/12 08:33:35;;;;;;;1.33;0.63;;;;;;;;;;5029848;28;20378;-67
2021/01/12 08:36:09;;;;;;;1.95;1.10;;;;;;;;;;5029982;28;20334;-67
2021/01/12 08:38:35;;;;;;;5.10;1.13;;;;;;;;;;5029289;28;20488;-67
2021/01/12 08:41:04;;;;;;;2.83;1.17;;;;;;;;;;5030692;28;20017;-68
2021/01/12 08:43:29;;;;;;;4.10;1.27;;;;;;;;;;5030592;28;20021;-67
2021/01/12 08:45:58;;;;;;;6.38;1.23;;;;;;;;;;5030203;28;20515;-66
2021/01/12 08:48:24;;;;;;;4.53;1.20;;;;;;;;;;5029283;28;20025;-67
2021/01/12 08:50:49;;;;;;;1.73;0.83;;;;;;;;;;5029658;28;20908;-67
2021/01/12 08:53:15;;;;;;;3.40;1.55;;;;;;;;;;5029894;28;20322;-66
2021/01/12 08:55:40;;;;;;;8.55;1.67;;;;;;;;;;5030596;28;20481;-66
2021/01/12 08:58:07;;;;;;;5.88;1.50;;;;;;;;;;5029637;28;20041;-67
2021/01/12 09:00:37;;;;;;;2.33;0.73;;;;;;;;;;5030274;28;20009;-67
2021/01/12 09:03:03;;;;;;;3.08;1.25;;;;;;;;;;5027990;28;20017;-67
2021/01/12 09:05:37;;;;;;;5.20;1.27;;;;;;;;;;5030499;28;20103;-67
2021/01/12 09:08:06;;;;;;;3.17;1.77;;;;;;;;;;5029811;28;20032;-67
2021/01/12 09:10:32;;;;;;;2.70;1.13;;;;;;;;;;5029617;28;20017;-67
2021/01/12 09:12:57;;;;;;;2.00;1.10;;;;;;;;;;5028983;28;20021;-67
2021/01/12 09:15:33;;;;;;;8.23;1.30;;;;;;;;;;5029647;28;20009;-67
2021/01/12 09:18:05;;;;;;;3.05;1.55;;;;;;;;;;5025747;28;20474;-66
2021/01/12 09:20:31;;;;;;;2.83;1.05;;;;;;;;;;5024559;28;20032;-67
2021/01/12 09:23:09;;;;;;;5.85;1.92;;;;;;;;;;5026076;28;20013;-67
2021/01/12 09:25:35;;;;;;;6.00;1.70;;;;;;;;;;5026354;28;20034;-66
2021/01/12 09:28:11;;;;;;;3.80;2.03;;;;;;;;;;5028651;28;20032;-67
2021/01/12 09:30:37;;;;;;;7.38;2.88;;;;;;;;;;5029436;28;20082;-67
2021/01/12 09:33:03;;;;;;;10.43;5.88;;;;;;;;;;5028807;28;20530;-67
2021/01/12 09:35:28;;;;;;;14.48;6.25;;;;;;;;;;5028663;28;20029;-67
2021/01/12 09:38:00;;;;;;;10.27;5.50;;;;;;;;;;5029695;28;20075;-67
2021/01/12 09:40:25;;;;;;;21.88;9.27;;;;;;;;;;5028420;28;20091;-67
2021/01/12 09:42:51;;;;;;;14.30;7.25;;;;;;;;;;5033740;28;20025;-67
2021/01/12 09:45:16;;;;;;;8.85;4.50;;;;;;;;;;5026267;28;20486;-67
2021/01/12 09:47:41;;;;;;;15.48;5.55;;;;;;;;;;5029500;28;20017;-67
2021/01/12 09:50:07;;;;;;;11.20;5.65;;;;;;;;;;5028584;28;20029;-67
2021/01/12 09:52:32;;;;;;;12.25;4.60;;;;;;;;;;5028130;28;20063;-67
2021/01/12 09:54:57;;;;;;;6.32;3.35;;;;;;;;;;5028494;28;20021;-67
2021/01/12 09:57:22;;;;;;;5.07;3.20;;;;;;;;;;5026643;28;20082;-67
2021/01/12 09:59:48;;;;;;;3.95;2.35;;;;;;;;;;5029157;28;20100;-67
2021/01/12 10:02:13;;;;;;;6.90;2.77;;;;;;;;;;5029007;28;20018;-67
2021/01/12 10:04:38;;;;;;;7.97;3.33;;;;;;;;;;5026392;28;20269;-67
2021/01/12 10:07:03;;;;;;;6.65;3.85;;;;;;;;;;5027210;28;20268;-67
2021/01/12 10:09:29;;;;;;;6.10;3.50;;;;;;;;;;5028090;28;20264;-67
2021/01/12 10:11:54;;;;;;;6.35;3.30;;;;;;;;;;5029013;28;20017;-67
2021/01/12 10:14:20;;;;;;;7.80;4.07;;;;;;;;;;5029173;28;20025;-67
2021/01/12 10:16:46;;;;;;;9.93;4.63;;;;;;;;;;5028771;28;20539;-67
2021/01/12 10:19:11;;;;;;;7.97;3.83;;;;;;;;;;5028453;28;20017;-67
2021/01/12 10:21:36;;;;;;;7.80;4.35;;;;;;;;;;5027780;28;20135;-67
2021/01/12 10:24:01;;;;;;;7.20;4.03;;;;;;;;;;5028951;28;20071;-67
2021/01/12 10:26:26;;;;;;;7.18;4.03;;;;;;;;;;5028718;28;20053;-67
2021/01/12 10:28:52;;;;;;;7.57;4.43;;;;;;;;;;5029398;28;20033;-67
2021/01/12 10:31:19;;;;;;;12.48;4.78;;;;;;;;;;5028538;28;20021;-67
2021/01/12 10:33:44;;;;;;;9.85;5.25;;;;;;;;;;5027426;28;20029;-67
2021/01/12 10:36:13;;;;;;;11.20;6.65;;;;;;;;;;5028270;28;20029;-67
2021/01/12 10:38:38;;;;;;;7.82;4.93;;;;;;;;;;5031572;28;20013;-67
2021/01/12 10:41:03;;;;;;;7.47;4.77;;;;;;;;;;5032393;28;20020;-67
2021/01/12 10:43:29;;;;;;;9.43;4.87;;;;;;;;;;5032510;28;20264;-67
2021/01/12 10:45:54;;;;;;;7.55;4.18;;;;;;;;;;5031078;28;20272;-67
2021/01/12 10:48:19;;;;;;;9.63;4.57;;;;;;;;;;5032388;28;20029;-67
2021/01/12 10:50:44;;;;;;;7.38;3.58;;;;;;;;;;5032504;28;20029;-67
2021/01/12 10:53:10;;;;;;;5.43;3.88;;;;;;;;;;5038440;28;20025;-68
2021/01/12 10:55:35;;;;;;;12.18;3.80;;;;;;;;;;5031804;28;20021;-66
2021/01/12 10:58:00;;;;;;;10.30;4.00;;;;;;;;;;5032120;28;20017;-67
2021/01/12 11:00:25;;;;;;;9.70;4.50;;;;;;;;;;5031198;28;20763;-67
2021/01/12 11:02:50;;;;;;;7.43;4.53;;;;;;;;;;5031842;28;20263;-67
2021/01/12 11:05:15;;;;;;;11.18;5.10;;;;;;;;;;5030361;28;20018;-65
2021/01/12 11:07:41;;;;;;;6.77;4.30;;;;;;;;;;5030637;28;20470;-65
2021/01/12 11:10:07;;;;;;;7.35;4.78;;;;;;;;;;5031165;28;20271;-65
2021/01/12 11:12:32;;;;;;;6.72;4.07;;;;;;;;;;5029465;28;20049;-64
2021/01/12 11:14:58;;;;;;;8.60;4.75;;;;;;;;;;5031024;28;20061;-66
2021/01/12 11:17:24;;;;;;;7.78;4.90;;;;;;;;;;5031758;28;20139;-64
2021/01/12 11:19:50;;;;;;;13.07;6.00;;;;;;;;;;5032505;28;20129;-65
2021/01/12 11:22:15;;;;;;;9.13;5.47;;;;;;;;;;5031654;28;20064;-65
2021/01/12 11:24:40;;;;;;;10.73;6.90;;;;;;;;;;5032607;28;20025;-65
2021/01/12 11:27:06;;;;;;;14.45;6.15;;;;;;;;;;5032048;28;20077;-64
2021/01/12 11:29:31;;;;;;;10.18;5.90;;;;;;;;;;5032218;28;20108;-65
2021/01/12 11:31:57;;;;;;;8.65;5.82;;;;;;;;;;5031725;28;20140;-64
2021/01/12 11:34:22;;;;;;;12.95;6.32;;;;;;;;;;5032415;28;20045;-64
2021/01/12 11:36:48;;;;;;;14.32;7.30;;;;;;;;;;5031730;28;20500;-65
2021/01/12 11:39:14;;;;;;;9.55;4.35;;;;;;;;;;5032614;28;20489;-66
2021/01/12 11:41:47;;;;;;;10.10;5.10;;;;;;;;;;5030029;28;20013;-65
2021/01/12 11:44:12;;;;;;;8.73;5.70;;;;;;;;;;5026618;28;20028;-64
2021/01/12 11:46:37;;;;;;;8.48;4.57;;;;;;;;;;5031319;28;20105;-65
2021/01/12 11:49:02;;;;;;;6.63;4.20;;;;;;;;;;5029445;28;20104;-65
2021/01/12 11:51:41;;;;;;;4.60;2.10;;;;;;;;;;5030681;28;20024;-65
2021/01/12 11:54:07;;;;;;;3.28;1.80;;;;;;;;;;5031499;28;20104;-64
2021/01/12 11:56:32;;;;;;;4.53;2.00;;;;;;;;;;5031540;28;20104;-65
2021/01/12 11:58:57;;;;;;;5.65;2.25;;;;;;;;;;5029852;28;20017;-67
2021/01/12 12:01:23;;;;;;;3.22;1.92;;;;;;;;;;5028896;28;20017;-66
2021/01/12 12:03:48;;;;;;;14.63;2.35;;;;;;;;;;5027337;28;20482;-66
2021/01/12 12:06:13;;;;;;;6.18;2.20;;;;;;;;;;5029754;28;20033;-67
2021/01/12 12:08:39;;;;;;;3.20;2.00;;;;;;;;;;5029905;28;20056;-67
2021/01/12 12:11:04;;;;;;;6.47;1.63;;;;;;;;;;5028523;28;20026;-66
2021/01/12 12:13:29;;;;;;;3.30;1.40;;;;;;;;;;5030004;28;20060;-66
2021/01/12 12:15:54;;;;;;;3.55;1.60;;;;;;;;;;5030268;28;20405;-66
2021/01/12 12:18:20;;;;;;;2.47;1.50;;;;;;;;;;5030813;28;20034;-67
2021/01/12 12:20:45;;;;;;;4.10;1.40;;;;;;;;;;5030681;28;20268;-66
2021/01/12 12:23:10;;;;;;;2.47;1.15;;;;;;;;;;5030611;28;20021;-67
2021/01/12 12:25:35;;;;;;;5.23;1.20;;;;;;;;;;5028873;28;20045;-67
2021/01/12 12:28:01;;;;;;;3.60;1.30;;;;;;;;;;5031549;28;20310;-67
2021/01/12 12:30:26;;;;;;;2.72;1.42;;;;;;;;;;5026769;28;20330;-67
2021/01/12 12:32:51;;;;;;;4.95;1.30;;;;;;;;;;5030890;28;20021;-67
2021/01/12 12:35:16;;;;;;;4.32;1.35;;;;;;;;;;5028919;28;20017;-66
2021/01/12 12:37:41;;;;;;;6.40;2.58;;;;;;;;;;5027930;28;20540;-66
2021/01/12 12:40:07;;;;;;;2.20;1.07;;;;;;;;;;5025666;28;20282;-66
2021/01/12 12:42:32;;;;;;;5.88;0.95;;;;;;;;;;5029500;28;20299;-66
2021/01/12 12:44:57;;;;;;;0.82;0.50;;;;;;;;;;5029591;28;20478;-66
2021/01/12 12:47:23;;;;;;;1.10;0.70;;;;;;;;;;5030471;28;20104;-66
2021/01/12 12:49:49;;;;;;;1.30;0.75;;;;;;;;;;5029462;28;20636;-66
2021/01/12 12:52:15;;;;;;;6.65;0.80;;;;;;;;;;5030322;28;20040;-66
2021/01/12 12:54:40;;;;;;;3.33;1.10;;;;;;;;;;5029588;28;20027;-66
2021/01/12 12:57:07;;;;;;;2.50;0.70;;;;;;;;;;5028901;28;20329;-66
2021/01/12 12:59:32;;;;;;;3.72;0.82;;;;;;;;;;5029552;28;20271;-66
2021/01/12 13:01:58;;;;;;;6.97;1.00;;;;;;;;;;5028743;28;20021;-66
2021/01/12 13:04:23;;;;;;;3.47;1.15;;;;;;;;;;5030548;28;20272;-66
2021/01/12 13:06:49;;;;;;;3.72;0.90;;;;;;;;;;5028581;28;20032;-66
2021/01/12 13:09:15;;;;;;;3.50;2.28;;;;;;;;;;5029071;28;20032;-64
2021/01/12 13:11:43;;;;;;;1.83;1.00;;;;;;;;;;5029846;28;20025;-66
2021/01/12 13:14:09;;;;;;;2.38;0.90;;;;;;;;;;5029542;28;20394;-66
2021/01/12 13:16:34;;;;;;;2.70;1.25;;;;;;;;;;5029479;28;20029;-66
2021/01/12 13:19:02;;;;;;;2.88;1.27;;;;;;;;;;5029102;28;20045;-66
2021/01/12 13:21:27;;;;;;;4.65;0.85;;;;;;;;;;5029682;28;20083;-66
2021/01/12 13:23:52;;;;;;;2.45;1.10;;;;;;;;;;5028593;28;20033;-67
2021/01/12 13:26:19;;;;;;;6.47;1.23;;;;;;;;;;5028579;28;20031;-66
2021/01/12 13:28:44;;;;;;;2.90;1.10;;;;;;;;;;5028151;28;20017;-67
2021/01/12 13:31:10;;;;;;;2.92;0.77;;;;;;;;;;5025578;28;20040;-67
2021/01/12 13:33:35;;;;;;;3.67;1.20;;;;;;;;;;5028187;28;20317;-66
2021/01/12 13:36:00;;;;;;;1.77;0.93;;;;;;;;;;5027263;28;20342;-66
2021/01/12 13:38:25;;;;;;;5.23;0.63;;;;;;;;;;5026787;28;20048;-66
2021/01/12 13:40:50;;;;;;;2.15;0.70;;;;;;;;;;5029654;28;20339;-66
2021/01/12 13:43:16;;;;;;;2.92;1.38;;;;;;;;;;5028516;28;20056;-66
2021/01/12 13:45:41;;;;;;;3.70;2.00;;;;;;;;;;5028566;28;20045;-66
2021/01/12 13:48:06;;;;;;;4.80;2.30;;;;;;;;;;5028057;28;20120;-66
2021/01/12 13:50:32;;;;;;;6.10;2.90;;;;;;;;;;5028552;28;20100;-66
2021/01/12 13:52:57;;;;;;;4.82;2.83;;;;;;;;;;5027118;28;20021;-66
2021/01/12 13:55:23;;;;;;;5.53;2.53;;;;;;;;;;5028564;28;20021;-67
2021/01/12 13:58:07;;;;;;;9.05;2.17;;;;;;;;;;5027913;28;20029;-66
2021/01/12 14:00:33;;;;;;;4.40;1.10;;;;;;;;;;5028487;28;20033;-66
2021/01/12 14:02:59;;;;;;;2.95;0.98;;;;;;;;;;5027411;28;20470;-66
2021/01/12 14:05:25;;;;;;;5.20;1.35;;;;;;;;;;5027923;28;20021;-66
2021/01/12 14:07:51;;;;;;;6.22;1.58;;;;;;;;;;5026809;28;20053;-66
2021/01/12 14:10:16;;;;;;;5.03;1.50;;;;;;;;;;5028486;28;20057;-66
2021/01/12 14:12:41;;;;;;;3.97;1.25;;;;;;;;;;5030668;28;20108;-65
2021/01/12 14:15:07;;;;;;;5.32;1.60;;;;;;;;;;5032452;28;20033;-67
2021/01/12 14:17:36;;;;;;;6.25;1.80;;;;;;;;;;5032726;28;20068;-66
2021/01/12 14:20:02;;;;;;;12.43;1.45;;;;;;;;;;5032429;28;20030;-66
2021/01/12 14:22:27;;;;;;;12.38;1.50;;;;;;;;;;5033722;28;20121;-66
2021/01/12 14:24:53;;;;;;;5.90;2.00;;;;;;;;;;5032866;28;20053;-66
2021/01/12 14:27:18;;;;;;;7.70;2.22;;;;;;;;;;5031941;28;20316;-66
2021/01/12 14:29:44;;;;;;;2.55;1.17;;;;;;;;;;5028689;28;20028;-65
2021/01/12 14:32:10;;;;;;;2.78;1.10;;;;;;;;;;5031727;28;20032;-67
2021/01/12 14:34:36;;;;;;;3.97;1.23;;;;;;;;;;5028105;28;20021;-67